Time;durP1;ratioP1;P1;durP2;ratioP2;P2;SDS_P1;SDS_P2;PMS_P1;PMS_P2;Temp;Humidity;BMP_temperature;BMP_pressure;BME280_temperature;BME280_humidity;BME280_pressure;Samples;Min_cycle;Max_cycle;Signal;HPM_P1;HPM_P2
2024/01/23 00:00:37;;;;;;;13.93;3.43;;;8.40;99.90;;;;;;5033674;28;20239;-77
2024/01/23 00:03:03;;;;;;;16.53;2.93;;;8.50;99.90;;;;;;5014604;28;20573;-73
2024/01/23 00:05:29;;;;;;;10.70;3.17;;;8.40;99.90;;;;;;5032983;28;20177;-73
2024/01/23 00:07:54;;;;;;;7.93;3.13;;;8.40;99.90;;;;;;5015393;28;20182;-75
2024/01/23 00:10:22;;;;;;;10.60;3.40;;;8.50;99.90;;;;;;5033204;28;20217;-76
2024/01/23 00:12:48;;;;;;;13.03;2.80;;;8.40;99.90;;;;;;5033816;28;20749;-74
2024/01/23 00:15:14;;;;;;;8.67;3.27;;;8.40;99.90;;;;;;5015418;28;20436;-75
2024/01/23 00:17:40;;;;;;;10.57;3.73;;;8.40;99.90;;;;;;5031902;28;20947;-75
2024/01/23 00:20:07;;;;;;;15.23;3.63;;;8.40;99.90;;;;;;5034023;28;20432;-77
2024/01/23 00:22:33;;;;;;;12.77;3.97;;;8.40;99.90;;;;;;5032954;28;20179;-76
2024/01/23 00:24:59;;;;;;;9.47;3.23;;;8.40;99.90;;;;;;5034484;28;20478;-72
2024/01/23 00:27:25;;;;;;;12.57;3.10;;;8.30;99.90;;;;;;5032711;28;20527;-78
2024/01/23 00:29:51;;;;;;;11.10;3.17;;;8.40;99.90;;;;;;5029924;28;20506;-72
2024/01/23 00:32:17;;;;;;;6.90;2.90;;;8.30;99.90;;;;;;5013808;28;20435;-75
2024/01/23 00:34:43;;;;;;;11.20;3.97;;;8.20;99.90;;;;;;5031258;28;20182;-77
2024/01/23 00:37:09;;;;;;;12.53;3.20;;;8.00;99.90;;;;;;5014230;28;20432;-77
2024/01/23 00:39:38;;;;;;;8.77;3.00;;;7.90;99.90;;;;;;5032658;28;20197;-76
2024/01/23 00:42:08;;;;;;;7.63;3.20;;;7.90;99.90;;;;;;5031158;28;20429;-79
2024/01/23 00:44:34;;;;;;;9.70;3.43;;;7.90;99.90;;;;;;5031947;28;20436;-73
2024/01/23 00:47:00;;;;;;;14.50;4.13;;;7.90;99.90;;;;;;5018391;28;20432;-74
2024/01/23 00:49:26;;;;;;;10.07;3.10;;;7.90;99.90;;;;;;5036513;28;20425;-73
2024/01/23 00:51:51;;;;;;;12.97;5.37;;;7.90;99.90;;;;;;5038490;28;20456;-73
2024/01/23 00:54:17;;;;;;;14.40;3.80;;;7.90;99.90;;;;;;5018504;28;20228;-75
2024/01/23 00:56:43;;;;;;;16.10;3.43;;;7.90;99.90;;;;;;5019357;28;20735;-77
2024/01/23 00:59:12;;;;;;;14.40;3.60;;;7.80;99.90;;;;;;5037226;28;20247;-79
2024/01/23 01:01:39;;;;;;;10.10;2.83;;;7.80;99.90;;;;;;5002997;28;20417;-75
2024/01/23 01:04:05;;;;;;;12.93;3.27;;;7.80;99.90;;;;;;5020435;28;20424;-73
2024/01/23 01:06:31;;;;;;;13.83;3.53;;;7.90;99.90;;;;;;5036341;28;20930;-78
2024/01/23 01:08:58;;;;;;;11.83;4.03;;;7.80;99.90;;;;;;5020438;28;20427;-76
2024/01/23 01:11:24;;;;;;;13.37;3.67;;;7.80;99.90;;;;;;5019552;28;20970;-74
2024/01/23 01:13:49;;;;;;;11.73;3.93;;;7.80;99.90;;;;;;5038665;28;21005;-75
2024/01/23 01:16:15;;;;;;;14.90;3.40;;;7.80;99.90;;;;;;5019189;28;20447;-74
2024/01/23 01:18:41;;;;;;;14.13;3.27;;;7.80;99.90;;;;;;5036682;28;20185;-76
2024/01/23 01:21:07;;;;;;;8.53;2.40;;;7.80;99.90;;;;;;5020436;28;20182;-72
2024/01/23 01:23:34;;;;;;;8.30;2.70;;;7.80;99.90;;;;;;5036615;28;20182;-78
2024/01/23 01:26:01;;;;;;;5.73;2.43;;;7.80;99.90;;;;;;5037442;28;20428;-77
2024/01/23 01:28:27;;;;;;;11.70;3.40;;;7.80;99.90;;;;;;5035997;28;20443;-78
2024/01/23 01:30:53;;;;;;;7.80;2.87;;;7.80;99.90;;;;;;5037018;28;20478;-80
2024/01/23 01:33:19;;;;;;;10.70;3.10;;;7.80;99.90;;;;;;5036794;28;20918;-78
2024/01/23 01:35:45;;;;;;;9.90;3.17;;;7.80;99.90;;;;;;5018522;28;20437;-74
2024/01/23 01:38:11;;;;;;;13.60;2.70;;;7.80;99.90;;;;;;5032986;28;20924;-78
2024/01/23 01:40:37;;;;;;;13.87;4.63;;;7.70;99.90;;;;;;5033320;28;20431;-71
2024/01/23 01:43:03;;;;;;;10.40;2.60;;;7.70;99.90;;;;;;5017651;28;20185;-75
2024/01/23 01:45:28;;;;;;;11.07;2.70;;;7.80;99.90;;;;;;5036165;28;20934;-80
2024/01/23 01:47:56;;;;;;;19.97;3.90;;;7.80;99.90;;;;;;5037379;28;20194;-75
2024/01/23 01:50:22;;;;;;;12.90;3.07;;;7.80;99.90;;;;;;5017742;28;20627;-78
2024/01/23 01:52:48;;;;;;;9.07;2.70;;;7.80;99.90;;;;;;5019545;28;20436;-75
2024/01/23 01:55:14;;;;;;;10.53;2.73;;;7.80;99.90;;;;;;5036059;28;20428;-73
2024/01/23 01:57:40;;;;;;;10.37;3.20;;;7.80;99.90;;;;;;5036086;28;20432;-75
2024/01/23 02:00:08;;;;;;;10.60;2.80;;;7.80;99.90;;;;;;5019103;28;20190;-79
2024/01/23 02:02:36;;;;;;;14.73;2.90;;;7.80;99.90;;;;;;5017946;28;20421;-78
2024/01/23 02:05:02;;;;;;;10.83;2.97;;;7.80;99.90;;;;;;5035786;28;20432;-77
2024/01/23 02:07:29;;;;;;;7.33;2.20;;;7.70;99.90;;;;;;5036086;28;20763;-74
2024/01/23 02:09:54;;;;;;;7.50;3.43;;;7.80;99.90;;;;;;5019367;28;20821;-75
2024/01/23 02:12:20;;;;;;;10.50;3.60;;;7.80;99.90;;;;;;5035216;28;20491;-76
2024/01/23 02:14:46;;;;;;;10.33;4.33;;;7.80;99.90;;;;;;5035896;28;20187;-78
2024/01/23 02:17:11;;;;;;;11.47;2.37;;;7.70;99.90;;;;;;5002579;28;20193;-75
2024/01/23 02:19:37;;;;;;;11.67;3.40;;;7.80;99.90;;;;;;5036091;28;20180;-75
2024/01/23 02:22:03;;;;;;;10.37;3.70;;;7.80;99.90;;;;;;5036328;28;20189;-75
2024/01/23 02:24:29;;;;;;;6.30;3.13;;;7.80;99.90;;;;;;5035399;28;20216;-78
2024/01/23 02:26:54;;;;;;;8.73;2.60;;;7.80;99.90;;;;;;5036672;28;20187;-75
2024/01/23 02:29:20;;;;;;;11.30;3.03;;;7.70;99.90;;;;;;5035220;28;20221;-76
2024/01/23 02:31:46;;;;;;;10.80;3.60;;;7.70;99.90;;;;;;5018594;28;20186;-77
2024/01/23 02:34:11;;;;;;;14.53;2.83;;;7.70;99.90;;;;;;5018703;28;20191;-77
2024/01/23 02:36:39;;;;;;;10.23;3.00;;;7.70;99.90;;;;;;5018510;28;20280;-76
2024/01/23 02:39:08;;;;;;;10.80;2.60;;;7.70;99.90;;;;;;5036220;28;20212;-77
2024/01/23 02:41:34;;;;;;;9.53;3.53;;;7.70;99.90;;;;;;5016727;28;20461;-78
2024/01/23 02:44:00;;;;;;;11.17;3.20;;;7.70;99.90;;;;;;5035895;28;20515;-78
2024/01/23 02:46:25;;;;;;;10.70;2.80;;;7.70;99.90;;;;;;5034324;28;20252;-75
2024/01/23 02:48:51;;;;;;;13.80;2.83;;;7.70;99.90;;;;;;5035927;28;20225;-77
2024/01/23 02:51:21;;;;;;;9.03;3.30;;;7.70;99.90;;;;;;5033955;28;20225;-76
2024/01/23 02:53:47;;;;;;;9.27;3.30;;;7.70;99.90;;;;;;5035268;28;20193;-78
2024/01/23 02:56:13;;;;;;;7.57;2.40;;;7.70;99.90;;;;;;5034822;28;20469;-73
2024/01/23 02:58:40;;;;;;;5.70;2.57;;;7.70;99.90;;;;;;5035065;28;20420;-77
2024/01/23 03:01:06;;;;;;;16.50;3.63;;;7.70;99.90;;;;;;5035425;28;20465;-75
2024/01/23 03:03:31;;;;;;;7.77;2.90;;;7.70;99.90;;;;;;5034477;28;20472;-75
2024/01/23 03:05:57;;;;;;;14.20;2.90;;;7.70;99.90;;;;;;5034674;28;20194;-77
2024/01/23 03:08:23;;;;;;;11.27;3.43;;;7.70;99.90;;;;;;5034890;28;20636;-75
2024/01/23 03:10:49;;;;;;;6.23;2.50;;;7.60;99.90;;;;;;5035819;28;20221;-76
2024/01/23 03:13:15;;;;;;;11.27;3.60;;;7.70;99.90;;;;;;5036120;28;20182;-78
2024/01/23 03:15:41;;;;;;;5.73;2.10;;;7.60;99.90;;;;;;5038359;28;20436;-75
2024/01/23 03:18:06;;;;;;;10.80;2.40;;;7.70;99.90;;;;;;5037299;28;20948;-75
2024/01/23 03:20:33;;;;;;;8.40;3.40;;;7.60;99.90;;;;;;5035142;28;20427;-74
2024/01/23 03:23:00;;;;;;;7.30;2.40;;;7.60;99.90;;;;;;5034851;28;20206;-76
2024/01/23 03:25:26;;;;;;;8.70;2.80;;;7.60;99.90;;;;;;5032884;28;20969;-76
2024/01/23 03:27:52;;;;;;;12.47;3.40;;;7.60;99.90;;;;;;5034873;28;20464;-80
2024/01/23 03:30:31;;;;;;;12.43;2.70;;;7.60;99.90;;;;;;5033272;28;20519;-76
2024/01/23 03:32:58;;;;;;;9.10;2.43;;;7.60;99.90;;;;;;5035702;28;20424;-78
2024/01/23 03:35:24;;;;;;;11.90;3.37;;;7.60;99.90;;;;;;5033787;28;20490;-77
2024/01/23 03:37:51;;;;;;;11.47;2.83;;;7.60;99.90;;;;;;5035103;28;20432;-78
2024/01/23 03:40:17;;;;;;;7.00;1.80;;;7.60;99.90;;;;;;5013008;28;20907;-76
2024/01/23 03:42:43;;;;;;;15.40;2.73;;;7.60;99.90;;;;;;5034411;28;20421;-75
2024/01/23 03:45:09;;;;;;;9.97;2.90;;;7.60;99.90;;;;;;5033853;28;20835;-75
2024/01/23 03:47:35;;;;;;;14.90;2.13;;;7.60;99.90;;;;;;5016680;28;20967;-77
2024/01/23 03:50:01;;;;;;;11.60;3.27;;;7.60;99.90;;;;;;5034731;28;20464;-78
2024/01/23 03:52:28;;;;;;;12.10;2.80;;;7.60;99.90;;;;;;5015050;28;20468;-74
2024/01/23 03:54:53;;;;;;;11.03;2.33;;;7.60;99.90;;;;;;5016978;28;20445;-76
2024/01/23 03:57:19;;;;;;;9.50;2.10;;;7.60;99.90;;;;;;5034090;28;20436;-75
2024/01/23 03:59:45;;;;;;;7.47;2.43;;;7.60;99.90;;;;;;5034639;28;20189;-81
2024/01/23 04:02:11;;;;;;;10.60;2.57;;;7.60;99.90;;;;;;5015937;28;20452;-75
2024/01/23 04:04:38;;;;;;;10.03;2.53;;;7.60;99.90;;;;;;5016999;28;20852;-73
2024/01/23 04:07:03;;;;;;;11.57;1.93;;;7.60;99.90;;;;;;5033473;28;20641;-76
2024/01/23 04:09:29;;;;;;;6.33;2.00;;;7.60;99.90;;;;;;5034125;28;20436;-79
2024/01/23 04:11:56;;;;;;;8.00;2.77;;;7.60;99.90;;;;;;5034565;28;20297;-73
2024/01/23 04:14:22;;;;;;;11.17;2.50;;;7.60;99.90;;;;;;5033880;28;20433;-75
2024/01/23 04:16:48;;;;;;;9.60;2.50;;;7.70;99.90;;;;;;5034107;28;20485;-76
2024/01/23 04:19:13;;;;;;;7.67;2.73;;;7.60;99.90;;;;;;5033019;28;20923;-79
2024/01/23 04:21:40;;;;;;;7.80;2.90;;;7.60;99.90;;;;;;5018344;28;20185;-76
2024/01/23 04:24:06;;;;;;;8.40;2.73;;;7.60;99.90;;;;;;5037790;28;20189;-79
2024/01/23 04:26:32;;;;;;;12.10;3.00;;;7.60;99.90;;;;;;5019986;28;20950;-73
2024/01/23 04:28:57;;;;;;;11.10;3.20;;;7.60;99.90;;;;;;5020532;28;20425;-78
2024/01/23 04:31:23;;;;;;;8.93;2.57;;;7.60;99.90;;;;;;5037481;28;20814;-74
2024/01/23 04:33:49;;;;;;;9.73;3.30;;;7.60;99.90;;;;;;5038471;28;20190;-76
2024/01/23 04:36:16;;;;;;;7.03;2.47;;;7.60;99.90;;;;;;5036916;28;20517;-75
2024/01/23 04:38:42;;;;;;;17.60;3.00;;;7.50;99.90;;;;;;5005646;28;20798;-77
2024/01/23 04:41:09;;;;;;;10.50;3.40;;;7.60;99.90;;;;;;5036755;28;20424;-75
2024/01/23 04:43:35;;;;;;;12.80;2.60;;;7.50;99.90;;;;;;5020131;28;20441;-73
2024/01/23 04:46:00;;;;;;;9.80;2.77;;;7.60;99.90;;;;;;5037393;28;20444;-74
2024/01/23 04:48:26;;;;;;;10.43;2.70;;;7.60;99.90;;;;;;5037525;28;20189;-80
2024/01/23 04:50:52;;;;;;;5.73;2.60;;;7.60;99.90;;;;;;5003661;28;20682;-78
2024/01/23 04:53:18;;;;;;;10.73;3.10;;;7.50;99.90;;;;;;5036700;28;20584;-77
2024/01/23 04:55:44;;;;;;;8.57;2.97;;;7.50;99.90;;;;;;5037124;28;20209;-77
2024/01/23 04:58:10;;;;;;;11.67;2.80;;;7.50;99.90;;;;;;5036920;28;20966;-75
2024/01/23 05:00:35;;;;;;;8.07;3.40;;;7.50;99.90;;;;;;5037395;28;20652;-76
2024/01/23 05:03:01;;;;;;;9.30;2.70;;;7.50;99.90;;;;;;5037101;28;20888;-74
2024/01/23 05:05:28;;;;;;;6.83;2.30;;;7.50;99.90;;;;;;5019162;28;20284;-78
2024/01/23 05:07:53;;;;;;;14.87;2.90;;;7.40;99.90;;;;;;5037206;28;20428;-78
2024/01/23 05:10:19;;;;;;;10.50;2.53;;;7.40;99.90;;;;;;5018303;28;21180;-73
2024/01/23 05:12:45;;;;;;;7.50;2.50;;;7.40;99.90;;;;;;5038031;28;20189;-77
2024/01/23 05:15:10;;;;;;;8.77;3.80;;;7.40;99.90;;;;;;5036213;28;20202;-77
2024/01/23 05:17:37;;;;;;;11.60;3.20;;;7.40;99.90;;;;;;5037296;28;20944;-79
2024/01/23 05:20:06;;;;;;;10.30;3.70;;;7.40;99.90;;;;;;5003481;28;20186;-74
2024/01/23 05:22:31;;;;;;;8.80;2.40;;;7.30;99.90;;;;;;5036685;28;20464;-76
2024/01/23 05:24:57;;;;;;;8.70;3.07;;;7.30;99.90;;;;;;5018985;28;20465;-76
2024/01/23 05:27:23;;;;;;;11.30;2.67;;;7.30;99.90;;;;;;5036487;28;20186;-78
2024/01/23 05:29:48;;;;;;;5.03;2.33;;;7.30;99.90;;;;;;5020079;28;20682;-75
2024/01/23 05:32:14;;;;;;;14.27;3.03;;;7.30;99.90;;;;;;5035195;28;20194;-72
2024/01/23 05:34:40;;;;;;;10.97;2.50;;;7.40;99.90;;;;;;5018727;28;20543;-79
2024/01/23 05:37:06;;;;;;;8.80;2.40;;;7.40;99.90;;;;;;5035777;28;20178;-75
2024/01/23 05:39:38;;;;;;;15.30;3.10;;;7.40;99.90;;;;;;5036760;28;20564;-78
2024/01/23 05:42:06;;;;;;;16.40;2.50;;;7.30;99.90;;;;;;5035659;28;20190;-77
2024/01/23 05:44:32;;;;;;;9.43;3.17;;;7.30;99.90;;;;;;5037022;28;20429;-79
2024/01/23 05:46:58;;;;;;;7.70;3.40;;;7.30;99.90;;;;;;5017832;28;20437;-73
2024/01/23 05:49:24;;;;;;;10.50;3.03;;;7.30;99.90;;;;;;5036322;28;20431;-80
2024/01/23 05:51:50;;;;;;;9.83;2.97;;;7.40;99.90;;;;;;5036406;28;20865;-77
2024/01/23 05:54:15;;;;;;;8.70;4.00;;;7.40;99.90;;;;;;5035720;28;20517;-73
2024/01/23 05:56:41;;;;;;;11.73;2.90;;;7.30;99.90;;;;;;5035819;28;20184;-77
2024/01/23 05:59:07;;;;;;;10.00;2.97;;;7.30;99.90;;;;;;5032782;28;20224;-75
2024/01/23 06:01:33;;;;;;;10.00;3.33;;;7.30;99.90;;;;;;5033664;28;20186;-76
2024/01/23 06:03:59;;;;;;;13.10;3.00;;;7.20;99.90;;;;;;5034481;28;20961;-79
2024/01/23 06:06:26;;;;;;;15.07;2.60;;;7.30;99.90;;;;;;5001547;28;20922;-73
2024/01/23 06:08:51;;;;;;;8.77;3.53;;;7.20;99.90;;;;;;5017757;28;20447;-74
2024/01/23 06:11:17;;;;;;;12.07;3.70;;;7.20;99.90;;;;;;5015688;28;20484;-75
2024/01/23 06:13:43;;;;;;;8.63;3.13;;;7.20;99.90;;;;;;5036111;28;20181;-78
2024/01/23 06:16:09;;;;;;;8.40;2.73;;;7.20;99.90;;;;;;5016776;28;20213;-77
2024/01/23 06:18:35;;;;;;;9.13;2.77;;;7.20;99.90;;;;;;5018377;28;20454;-79
2024/01/23 06:21:02;;;;;;;15.80;3.80;;;7.20;99.90;;;;;;5035236;28;20428;-74
2024/01/23 06:23:28;;;;;;;13.37;3.50;;;7.20;99.90;;;;;;5035619;28;20428;-76
2024/01/23 06:25:54;;;;;;;12.53;3.77;;;7.10;99.90;;;;;;5035854;28;21469;-75
2024/01/23 06:28:19;;;;;;;13.20;3.43;;;7.10;99.90;;;;;;5018333;28;20190;-77
2024/01/23 06:30:45;;;;;;;11.80;3.07;;;7.00;99.90;;;;;;5035839;28;20237;-76
2024/01/23 06:33:12;;;;;;;13.13;3.50;;;7.00;99.90;;;;;;5035065;28;20273;-77
2024/01/23 06:35:38;;;;;;;12.10;3.20;;;7.00;99.90;;;;;;5035048;28;20433;-74
2024/01/23 06:38:03;;;;;;;11.87;3.10;;;7.00;99.90;;;;;;5034915;28;20450;-76
2024/01/23 06:40:29;;;;;;;12.73;3.47;;;6.90;99.90;;;;;;5035483;28;21200;-75
2024/01/23 06:42:55;;;;;;;14.83;3.23;;;7.00;99.90;;;;;;5017568;28;20560;-76
2024/01/23 06:45:20;;;;;;;9.50;4.07;;;7.00;99.90;;;;;;5033984;28;20187;-78
2024/01/23 06:47:46;;;;;;;17.60;3.83;;;6.90;99.90;;;;;;5036064;28;20182;-78
2024/01/23 06:50:12;;;;;;;7.13;2.60;;;6.90;99.90;;;;;;5034194;28;20221;-73
2024/01/23 06:52:38;;;;;;;9.70;2.67;;;6.90;99.90;;;;;;5035448;28;20317;-76
2024/01/23 06:55:04;;;;;;;11.80;3.93;;;6.90;99.90;;;;;;5034208;28;20439;-78
2024/01/23 06:57:30;;;;;;;11.70;3.73;;;6.90;99.90;;;;;;5016987;28;20277;-73
2024/01/23 06:59:55;;;;;;;9.63;3.73;;;6.90;99.90;;;;;;5017186;28;20607;-76
2024/01/23 07:02:21;;;;;;;8.57;2.53;;;6.90;99.90;;;;;;5034033;28;20182;-78
2024/01/23 07:04:47;;;;;;;14.97;3.80;;;6.90;99.90;;;;;;5033951;28;20194;-78
2024/01/23 07:07:12;;;;;;;7.30;3.20;;;6.90;99.90;;;;;;5031145;28;20205;-78
2024/01/23 07:09:38;;;;;;;13.70;3.77;;;6.90;99.90;;;;;;5034628;28;20537;-79
2024/01/23 07:12:04;;;;;;;13.27;3.30;;;6.80;99.90;;;;;;5033623;28;20190;-79
2024/01/23 07:14:30;;;;;;;10.83;3.73;;;6.80;99.90;;;;;;5016505;28;20831;-75
2024/01/23 07:16:56;;;;;;;10.47;2.77;;;6.80;99.90;;;;;;5034468;28;20547;-79
2024/01/23 07:19:21;;;;;;;6.77;3.00;;;6.90;99.90;;;;;;5016118;28;20664;-78
2024/01/23 07:21:48;;;;;;;11.43;3.10;;;6.80;99.90;;;;;;5015293;28;20186;-80
2024/01/23 07:24:13;;;;;;;13.07;2.83;;;6.90;99.90;;;;;;5029486;28;20647;-73
2024/01/23 07:26:39;;;;;;;14.43;5.83;;;6.80;99.90;;;;;;5001089;28;20776;-71
2024/01/23 07:29:05;;;;;;;7.40;2.77;;;6.80;99.90;;;;;;5027168;28;20248;-72
2024/01/23 07:31:31;;;;;;;13.23;3.40;;;6.80;99.90;;;;;;5028972;28;20806;-71
2024/01/23 07:33:57;;;;;;;17.37;2.83;;;6.80;99.90;;;;;;5013272;28;20220;-72
2024/01/23 07:36:23;;;;;;;12.70;3.53;;;6.80;99.90;;;;;;5030485;28;20190;-71
2024/01/23 07:38:48;;;;;;;8.00;2.33;;;6.80;99.90;;;;;;5031720;28;20953;-75
2024/01/23 07:41:14;;;;;;;11.80;3.07;;;6.80;99.90;;;;;;5031106;28;20189;-73
2024/01/23 07:43:40;;;;;;;16.27;3.27;;;6.80;99.90;;;;;;5032592;28;20282;-74
2024/01/23 07:46:05;;;;;;;12.00;3.07;;;6.80;99.90;;;;;;5013689;28;20282;-74
2024/01/23 07:48:31;;;;;;;11.53;2.43;;;6.80;99.90;;;;;;5033173;28;20244;-71
2024/01/23 07:50:57;;;;;;;8.10;2.50;;;6.80;99.90;;;;;;5032146;28;20218;-73
2024/01/23 07:53:23;;;;;;;16.33;3.47;;;6.80;99.90;;;;;;5033139;28;20196;-73
2024/01/23 07:55:48;;;;;;;11.70;3.77;;;6.80;99.90;;;;;;5032829;28;20736;-72
2024/01/23 07:58:14;;;;;;;14.93;2.93;;;6.80;99.90;;;;;;5034547;28;20235;-73
2024/01/23 08:00:43;;;;;;;12.47;2.97;;;6.80;99.90;;;;;;5016175;28;20241;-73
2024/01/23 08:03:09;;;;;;;9.27;2.50;;;6.80;99.90;;;;;;5032372;28;20434;-71
2024/01/23 08:05:35;;;;;;;13.70;2.60;;;6.70;99.90;;;;;;5032907;28;20428;-72
2024/01/23 08:08:01;;;;;;;14.90;3.10;;;6.70;99.90;;;;;;5031338;28;20439;-73
2024/01/23 08:10:27;;;;;;;10.63;3.17;;;6.70;99.90;;;;;;5010548;28;20600;-72
2024/01/23 08:12:53;;;;;;;11.63;3.63;;;6.70;99.90;;;;;;5032248;28;20566;-72
2024/01/23 08:15:19;;;;;;;11.27;3.07;;;6.70;99.90;;;;;;5031846;28;20206;-72
2024/01/23 08:17:45;;;;;;;16.70;3.00;;;6.80;99.90;;;;;;5033120;28;20446;-71
2024/01/23 08:20:11;;;;;;;11.80;3.00;;;6.70;99.90;;;;;;5031849;28;20188;-73
2024/01/23 08:22:37;;;;;;;9.07;3.70;;;6.80;99.90;;;;;;5033033;28;20426;-73
2024/01/23 08:25:03;;;;;;;17.87;3.63;;;6.70;99.90;;;;;;5032159;28;20459;-72
2024/01/23 08:27:29;;;;;;;17.10;3.10;;;6.80;99.90;;;;;;5033228;28;20217;-70
2024/01/23 08:29:55;;;;;;;8.87;3.23;;;6.90;99.90;;;;;;5033033;28;20483;-70
2024/01/23 08:32:20;;;;;;;11.53;3.70;;;6.90;99.90;;;;;;5031284;28;20192;-74
2024/01/23 08:34:46;;;;;;;8.10;3.20;;;6.90;99.90;;;;;;5032278;28;20277;-71
2024/01/23 08:37:14;;;;;;;12.57;3.50;;;6.90;99.90;;;;;;5031903;28;20189;-74
2024/01/23 08:39:40;;;;;;;5.23;2.30;;;6.90;99.90;;;;;;5033055;28;20214;-73
2024/01/23 08:42:05;;;;;;;10.50;3.43;;;7.00;99.90;;;;;;5032196;28;20549;-74
2024/01/23 08:44:31;;;;;;;16.23;3.53;;;7.10;99.90;;;;;;5032011;28;20783;-71
2024/01/23 08:46:57;;;;;;;16.97;2.87;;;7.10;99.90;;;;;;5032000;28;20190;-73
2024/01/23 08:49:22;;;;;;;12.50;2.80;;;7.20;99.90;;;;;;5015019;28;20182;-72
2024/01/23 08:51:48;;;;;;;16.33;4.27;;;7.30;99.90;;;;;;5032222;28;20313;-73
2024/01/23 08:54:18;;;;;;;17.23;4.00;;;7.50;99.90;;;;;;5032757;28;20216;-71
2024/01/23 08:56:46;;;;;;;12.27;3.20;;;7.60;99.90;;;;;;5014946;28;20644;-75
2024/01/23 08:59:13;;;;;;;13.33;2.90;;;7.80;99.90;;;;;;5031695;28;20428;-72
2024/01/23 09:01:38;;;;;;;12.27;3.27;;;7.90;99.90;;;;;;5032720;28;20486;-71
2024/01/23 09:04:04;;;;;;;10.60;3.63;;;8.00;99.90;;;;;;5032083;28;20436;-70
2024/01/23 09:06:30;;;;;;;9.20;2.40;;;8.00;99.90;;;;;;5032161;28;20227;-72
2024/01/23 09:08:56;;;;;;;11.07;2.80;;;8.10;99.90;;;;;;5036146;28;20297;-70
2024/01/23 09:11:21;;;;;;;9.00;3.30;;;8.20;99.90;;;;;;5035642;28;20218;-72
2024/01/23 09:13:47;;;;;;;13.73;3.43;;;8.30;99.90;;;;;;5036272;28;20478;-70
2024/01/23 09:16:13;;;;;;;8.70;3.57;;;8.40;99.90;;;;;;5035586;28;20201;-70
2024/01/23 09:18:40;;;;;;;12.00;3.10;;;8.60;99.90;;;;;;5018374;28;20206;-71
2024/01/23 09:21:08;;;;;;;8.40;2.57;;;8.80;99.90;;;;;;5036015;28;21162;-74
2024/01/23 09:23:37;;;;;;;9.50;3.43;;;8.90;99.90;;;;;;5035361;28;20478;-74
2024/01/23 09:26:03;;;;;;;9.83;3.13;;;9.00;99.90;;;;;;5001258;28;20428;-73
2024/01/23 09:28:29;;;;;;;10.30;2.30;;;9.10;99.90;;;;;;5035531;28;20444;-71
2024/01/23 09:30:55;;;;;;;8.87;3.00;;;9.10;99.90;;;;;;5035085;28;20475;-71
2024/01/23 09:33:20;;;;;;;10.27;3.13;;;9.10;99.90;;;;;;5035420;28;20190;-74
2024/01/23 09:35:46;;;;;;;12.40;2.73;;;9.30;99.90;;;;;;5001666;28;20186;-71
2024/01/23 09:38:12;;;;;;;14.90;3.50;;;9.20;99.90;;;;;;5032821;28;20555;-74
2024/01/23 09:40:39;;;;;;;13.13;3.17;;;9.20;99.90;;;;;;5035632;28;20425;-70
2024/01/23 09:43:06;;;;;;;12.67;3.97;;;9.20;99.90;;;;;;5035539;28;20431;-73
2024/01/23 09:45:37;;;;;;;15.00;3.50;;;9.30;99.90;;;;;;5034134;28;21212;-71
2024/01/23 09:48:03;;;;;;;8.30;2.83;;;9.40;99.90;;;;;;5033861;28;21143;-73
2024/01/23 09:50:30;;;;;;;10.87;3.60;;;9.50;99.90;;;;;;5035720;28;20471;-72
2024/01/23 09:52:59;;;;;;;14.63;3.47;;;9.60;99.90;;;;;;5017790;28;20429;-72
2024/01/23 09:55:25;;;;;;;12.93;3.00;;;9.70;99.90;;;;;;5034965;28;20431;-72
2024/01/23 09:57:51;;;;;;;8.40;2.70;;;9.80;99.90;;;;;;5034301;28;20440;-72
2024/01/23 10:00:18;;;;;;;13.00;3.33;;;9.90;99.90;;;;;;5035465;28;20469;-73
2024/01/23 10:02:44;;;;;;;8.43;2.70;;;10.10;99.90;;;;;;5034828;28;20464;-73
2024/01/23 10:05:12;;;;;;;15.80;3.47;;;10.20;99.90;;;;;;5035236;28;20460;-70
2024/01/23 10:07:39;;;;;;;10.70;3.73;;;10.30;99.90;;;;;;5032995;28;20936;-71
2024/01/23 10:10:13;;;;;;;12.13;3.40;;;10.40;99.90;;;;;;5034500;28;20496;-70
2024/01/23 10:12:41;;;;;;;12.30;3.43;;;10.40;99.90;;;;;;5034059;28;21479;-71
2024/01/23 10:15:10;;;;;;;18.23;3.87;;;10.40;99.90;;;;;;5016787;28;20505;-71
2024/01/23 10:17:36;;;;;;;11.43;3.07;;;10.60;99.90;;;;;;5034777;28;20432;-74
2024/01/23 10:20:01;;;;;;;10.60;2.77;;;10.60;99.90;;;;;;5033306;28;20939;-72
2024/01/23 10:22:27;;;;;;;14.07;4.90;;;10.70;99.90;;;;;;5033491;28;20617;-74
2024/01/23 10:24:53;;;;;;;14.40;2.90;;;10.80;99.90;;;;;;5033665;28;20196;-73
2024/01/23 10:27:18;;;;;;;16.57;4.30;;;10.90;99.90;;;;;;5034643;28;20601;-73
2024/01/23 10:29:44;;;;;;;10.90;3.20;;;11.00;99.90;;;;;;5033972;28;20239;-72
2024/01/23 10:32:10;;;;;;;8.17;2.83;;;11.10;99.90;;;;;;5034317;28;20187;-72
2024/01/23 10:34:35;;;;;;;8.10;3.30;;;11.20;99.90;;;;;;5034621;28;20899;-72
2024/01/23 10:37:01;;;;;;;13.67;4.53;;;11.30;99.90;;;;;;5033238;28;20194;-71
2024/01/23 10:39:27;;;;;;;9.10;3.13;;;11.30;99.90;;;;;;5034860;28;20182;-71
2024/01/23 10:41:53;;;;;;;10.40;3.80;;;11.10;99.90;;;;;;5014906;28;20186;-73
2024/01/23 10:44:25;;;;;;;8.40;2.77;;;11.00;99.90;;;;;;5032605;28;20613;-74
2024/01/23 10:46:55;;;;;;;10.97;3.13;;;10.80;99.90;;;;;;5033254;28;20297;-71
2024/01/23 10:49:22;;;;;;;9.07;3.00;;;10.70;99.90;;;;;;5034090;28;21183;-71
2024/01/23 10:51:49;;;;;;;8.67;3.57;;;10.60;99.90;;;;;;5032833;28;20473;-73
2024/01/23 10:54:27;;;;;;;11.33;4.07;;;10.40;99.90;;;;;;5016375;28;20441;-74
2024/01/23 10:56:55;;;;;;;11.20;4.07;;;10.30;99.90;;;;;;5016478;28;21111;-72
2024/01/23 10:59:27;;;;;;;10.50;3.60;;;10.20;99.90;;;;;;5033582;28;20769;-70
2024/01/23 11:02:11;;;;;;;13.43;3.87;;;10.10;99.90;;;;;;5032595;28;20885;-71
2024/01/23 11:04:37;;;;;;;14.87;3.33;;;10.10;99.90;;;;;;5033740;28;20412;-71
2024/01/23 11:07:09;;;;;;;10.33;2.97;;;10.00;99.90;;;;;;5032450;28;20436;-72
2024/01/23 11:09:47;;;;;;;17.30;3.17;;;9.90;99.90;;;;;;5033537;28;20529;-73
2024/01/23 11:12:38;;;;;;;15.00;3.43;;;9.90;99.90;;;;;;5033054;28;20531;-71
2024/01/23 11:15:12;;;;;;;14.13;3.30;;;9.80;99.90;;;;;;5032769;28;20459;-71
2024/01/23 11:17:39;;;;;;;15.10;3.90;;;9.80;99.90;;;;;;5032567;28;20429;-73
2024/01/23 11:20:13;;;;;;;11.40;2.83;;;9.70;99.90;;;;;;5033289;28;20436;-72
2024/01/23 11:22:39;;;;;;;14.30;4.13;;;9.70;99.90;;;;;;5032057;28;20503;-73
2024/01/23 11:25:05;;;;;;;15.00;4.20;;;9.70;99.90;;;;;;5033322;28;20435;-73
2024/01/23 11:27:33;;;;;;;11.20;3.87;;;9.80;99.90;;;;;;5033489;28;20425;-72
2024/01/23 11:29:59;;;;;;;16.57;3.93;;;9.80;99.90;;;;;;5032297;28;20504;-71
2024/01/23 11:32:29;;;;;;;12.37;4.33;;;9.90;99.90;;;;;;5032920;28;20432;-71
2024/01/23 11:35:00;;;;;;;11.30;3.50;;;10.00;99.90;;;;;;5032156;28;20424;-73
2024/01/23 11:37:38;;;;;;;11.10;3.40;;;10.20;99.90;;;;;;5032630;28;20501;-72
2024/01/23 11:40:04;;;;;;;11.00;3.63;;;10.10;99.90;;;;;;5016438;28;20434;-72
2024/01/23 11:42:37;;;;;;;17.50;4.10;;;10.10;99.90;;;;;;5033310;28;20434;-70
2024/01/23 11:45:22;;;;;;;14.17;3.27;;;10.10;99.90;;;;;;5031976;28;20777;-73
2024/01/23 11:47:59;;;;;;;13.77;3.83;;;10.20;99.90;;;;;;5032264;28;20457;-72
2024/01/23 11:50:28;;;;;;;14.00;3.57;;;10.20;99.90;;;;;;5033051;28;20544;-72
2024/01/23 11:52:56;;;;;;;7.63;2.80;;;10.20;99.90;;;;;;5031832;28;20787;-71
2024/01/23 11:55:22;;;;;;;13.10;3.63;;;10.50;99.90;;;;;;5014340;28;20444;-70
2024/01/23 11:57:49;;;;;;;10.07;3.17;;;11.00;99.90;;;;;;4999352;28;20429;-72
2024/01/23 12:00:16;;;;;;;18.40;4.27;;;11.10;99.90;;;;;;5012344;28;20510;-71
2024/01/23 12:02:43;;;;;;;13.70;3.67;;;11.70;99.90;;;;;;5029700;28;20931;-72
2024/01/23 12:05:09;;;;;;;13.70;3.77;;;12.20;99.90;;;;;;5031332;28;20455;-73
2024/01/23 12:07:37;;;;;;;12.33;4.30;;;12.40;99.90;;;;;;5030456;28;20445;-72
2024/01/23 12:10:07;;;;;;;14.03;3.77;;;12.60;99.90;;;;;;5031952;28;21211;-73
2024/01/23 12:12:33;;;;;;;18.80;3.97;;;13.10;99.90;;;;;;5030840;28;20440;-72
2024/01/23 12:14:59;;;;;;;13.90;3.57;;;13.40;99.90;;;;;;5013961;28;20468;-71
2024/01/23 12:17:24;;;;;;;18.43;3.90;;;13.40;99.90;;;;;;5032088;28;20486;-72
2024/01/23 12:19:50;;;;;;;17.53;3.60;;;13.10;99.90;;;;;;5013231;28;20190;-73
2024/01/23 12:22:16;;;;;;;14.23;3.93;;;12.70;99.90;;;;;;5012751;28;20624;-72
2024/01/23 12:24:43;;;;;;;15.00;3.30;;;12.40;99.90;;;;;;5031516;28;20200;-70
2024/01/23 12:27:09;;;;;;;13.50;3.90;;;12.40;99.90;;;;;;5031699;28;20469;-72
2024/01/23 12:29:39;;;;;;;15.87;4.10;;;12.20;99.90;;;;;;5030368;28;20456;-71
2024/01/23 12:32:05;;;;;;;16.43;3.60;;;11.90;99.90;;;;;;5031623;28;20491;-73
2024/01/23 12:34:31;;;;;;;19.13;4.73;;;11.40;99.90;;;;;;5031404;28;20807;-73
2024/01/23 12:37:00;;;;;;;12.43;4.97;;;11.00;99.90;;;;;;5032017;28;20225;-73
2024/01/23 12:39:29;;;;;;;11.03;3.33;;;10.70;99.90;;;;;;5013794;28;20424;-74
2024/01/23 12:41:58;;;;;;;13.53;5.53;;;10.60;99.90;;;;;;5014417;28;20493;-74
2024/01/23 12:44:24;;;;;;;9.07;3.83;;;10.40;99.90;;;;;;5017378;28;20613;-72